sensor_id;sensor_type;location;lat;lon;timestamp;P1;durP1;ratioP1;P2;durP2;ratioP2
15665;SDS011;20725;51.196;3.510;2023-03-01T00:01:09;10.07;;;9.17;;
15665;SDS011;20725;51.196;3.510;2023-03-01T00:03:37;11.40;;;9.97;;
15665;SDS011;20725;51.196;3.510;2023-03-01T00:06:05;9.73;;;9.03;;
15665;SDS011;20725;51.196;3.510;2023-03-01T00:08:32;9.57;;;8.87;;
15665;SDS011;20725;51.196;3.510;2023-03-01T00:11:00;10.07;;;9.23;;
15665;SDS011;20725;51.196;3.510;2023-03-01T00:13:28;9.87;;;8.97;;
15665;SDS011;20725;51.196;3.510;2023-03-01T00:15:55;10.17;;;9.27;;
15665;SDS011;20725;51.196;3.510;2023-03-01T00:18:24;9.97;;;8.97;;
15665;SDS011;20725;51.196;3.510;2023-03-01T00:20:50;9.83;;;8.93;;
15665;SDS011;20725;51.196;3.510;2023-03-01T00:23:18;10.30;;;9.50;;
15665;SDS011;20725;51.196;3.510;2023-03-01T00:25:45;10.37;;;9.43;;
15665;SDS011;20725;51.196;3.510;2023-03-01T00:28:11;12.07;;;10.03;;
15665;SDS011;20725;51.196;3.510;2023-03-01T00:30:38;10.70;;;9.70;;
15665;SDS011;20725;51.196;3.510;2023-03-01T00:33:05;11.03;;;10.07;;
15665;SDS011;20725;51.196;3.510;2023-03-01T00:35:34;10.40;;;9.47;;
15665;SDS011;20725;51.196;3.510;2023-03-01T00:38:01;11.50;;;10.40;;
15665;SDS011;20725;51.196;3.510;2023-03-01T00:40:30;11.43;;;10.33;;
15665;SDS011;20725;51.196;3.510;2023-03-01T00:43:00;11.83;;;10.63;;
15665;SDS011;20725;51.196;3.510;2023-03-01T00:45:27;12.13;;;10.67;;
15665;SDS011;20725;51.196;3.510;2023-03-01T00:47:56;12.30;;;11.10;;
15665;SDS011;20725;51.196;3.510;2023-03-01T00:50:23;13.23;;;12.10;;
15665;SDS011;20725;51.196;3.510;2023-03-01T00:52:53;13.20;;;11.47;;
15665;SDS011;20725;51.196;3.510;2023-03-01T00:55:20;13.13;;;11.93;;
15665;SDS011;20725;51.196;3.510;2023-03-01T00:57:47;13.17;;;11.90;;
15665;SDS011;20725;51.196;3.510;2023-03-01T01:03:01;12.70;;;11.43;;
15665;SDS011;20725;51.196;3.510;2023-03-01T01:06:22;13.33;;;11.93;;
15665;SDS011;20725;51.196;3.510;2023-03-01T01:12:16;13.03;;;11.83;;
15665;SDS011;20725;51.196;3.510;2023-03-01T01:15:14;13.07;;;11.30;;
15665;SDS011;20725;51.196;3.510;2023-03-01T01:17:44;15.30;;;13.50;;
15665;SDS011;20725;51.196;3.510;2023-03-01T01:20:17;14.37;;;12.93;;
15665;SDS011;20725;51.196;3.510;2023-03-01T01:23:31;14.33;;;13.03;;
15665;SDS011;20725;51.196;3.510;2023-03-01T01:26:13;14.87;;;13.43;;
15665;SDS011;20725;51.196;3.510;2023-03-01T01:28:41;15.90;;;13.47;;
15665;SDS011;20725;51.196;3.510;2023-03-01T01:31:41;13.87;;;12.63;;
15665;SDS011;20725;51.196;3.510;2023-03-01T01:38:23;15.63;;;14.03;;
15665;SDS011;20725;51.196;3.510;2023-03-01T01:41:02;17.53;;;13.97;;
15665;SDS011;20725;51.196;3.510;2023-03-01T01:43:44;15.83;;;13.97;;
15665;SDS011;20725;51.196;3.510;2023-03-01T01:46:48;16.07;;;14.50;;
15665;SDS011;20725;51.196;3.510;2023-03-01T01:49:25;18.17;;;14.90;;
15665;SDS011;20725;51.196;3.510;2023-03-01T01:51:58;18.00;;;16.20;;
15665;SDS011;20725;51.196;3.510;2023-03-01T01:54:39;16.10;;;14.60;;
15665;SDS011;20725;51.196;3.510;2023-03-01T01:57:48;17.43;;;15.13;;
15665;SDS011;20725;51.196;3.510;2023-03-01T02:00:55;17.53;;;15.60;;
15665;SDS011;20725;51.196;3.510;2023-03-01T02:03:24;18.10;;;15.57;;
15665;SDS011;20725;51.196;3.510;2023-03-01T02:12:08;16.60;;;14.90;;
15665;SDS011;20725;51.196;3.510;2023-03-01T02:14:54;17.23;;;15.60;;
15665;SDS011;20725;51.196;3.510;2023-03-01T02:18:14;19.67;;;17.63;;
15665;SDS011;20725;51.196;3.510;2023-03-01T02:20:57;17.20;;;15.33;;
15665;SDS011;20725;51.196;3.510;2023-03-01T02:24:10;18.40;;;16.33;;
15665;SDS011;20725;51.196;3.510;2023-03-01T02:27:33;17.57;;;15.87;;
15665;SDS011;20725;51.196;3.510;2023-03-01T02:30:21;21.27;;;16.03;;
15665;SDS011;20725;51.196;3.510;2023-03-01T02:33:27;19.07;;;16.00;;
15665;SDS011;20725;51.196;3.510;2023-03-01T02:36:10;19.17;;;16.63;;
15665;SDS011;20725;51.196;3.510;2023-03-01T02:39:00;18.23;;;16.00;;
15665;SDS011;20725;51.196;3.510;2023-03-01T02:44:33;20.20;;;16.60;;
15665;SDS011;20725;51.196;3.510;2023-03-01T02:47:07;18.30;;;15.87;;
15665;SDS011;20725;51.196;3.510;2023-03-01T02:49:49;19.80;;;15.43;;
15665;SDS011;20725;51.196;3.510;2023-03-01T02:52:28;17.60;;;15.63;;
15665;SDS011;20725;51.196;3.510;2023-03-01T02:55:06;18.17;;;16.33;;
15665;SDS011;20725;51.196;3.510;2023-03-01T02:58:01;18.73;;;16.77;;
15665;SDS011;20725;51.196;3.510;2023-03-01T03:00:30;18.90;;;16.90;;
15665;SDS011;20725;51.196;3.510;2023-03-01T03:03:12;17.67;;;15.97;;
15665;SDS011;20725;51.196;3.510;2023-03-01T03:06:11;19.40;;;16.57;;
15665;SDS011;20725;51.196;3.510;2023-03-01T03:09:10;18.67;;;16.73;;
15665;SDS011;20725;51.196;3.510;2023-03-01T03:11:39;19.07;;;16.27;;
15665;SDS011;20725;51.196;3.510;2023-03-01T03:17:40;19.93;;;17.83;;
15665;SDS011;20725;51.196;3.510;2023-03-01T03:20:11;20.47;;;16.70;;
15665;SDS011;20725;51.196;3.510;2023-03-01T03:22:49;19.00;;;17.13;;
15665;SDS011;20725;51.196;3.510;2023-03-01T03:25:28;20.67;;;18.03;;
15665;SDS011;20725;51.196;3.510;2023-03-01T03:27:58;19.07;;;17.17;;
15665;SDS011;20725;51.196;3.510;2023-03-01T03:30:27;21.23;;;18.17;;
15665;SDS011;20725;51.196;3.510;2023-03-01T03:32:59;20.20;;;18.07;;
15665;SDS011;20725;51.196;3.510;2023-03-01T03:35:44;18.47;;;16.33;;
15665;SDS011;20725;51.196;3.510;2023-03-01T03:41:16;19.17;;;17.13;;
15665;SDS011;20725;51.196;3.510;2023-03-01T03:43:43;17.80;;;15.90;;
15665;SDS011;20725;51.196;3.510;2023-03-01T03:46:11;21.57;;;16.80;;
15665;SDS011;20725;51.196;3.510;2023-03-01T03:48:44;18.27;;;16.27;;
15665;SDS011;20725;51.196;3.510;2023-03-01T03:51:39;17.33;;;15.47;;
15665;SDS011;20725;51.196;3.510;2023-03-01T03:54:13;18.83;;;16.83;;
15665;SDS011;20725;51.196;3.510;2023-03-01T03:56:59;21.37;;;16.70;;
15665;SDS011;20725;51.196;3.510;2023-03-01T03:59:47;19.20;;;16.17;;
15665;SDS011;20725;51.196;3.510;2023-03-01T04:02:17;18.00;;;15.97;;
15665;SDS011;20725;51.196;3.510;2023-03-01T04:07:38;19.33;;;15.73;;
15665;SDS011;20725;51.196;3.510;2023-03-01T04:10:17;17.73;;;15.87;;
15665;SDS011;20725;51.196;3.510;2023-03-01T04:12:56;19.67;;;16.07;;
15665;SDS011;20725;51.196;3.510;2023-03-01T04:15:39;18.10;;;16.30;;
15665;SDS011;20725;51.196;3.510;2023-03-01T04:18:22;19.07;;;17.07;;
15665;SDS011;20725;51.196;3.510;2023-03-01T04:20:58;18.40;;;16.47;;
15665;SDS011;20725;51.196;3.510;2023-03-01T04:23:38;18.70;;;16.03;;
15665;SDS011;20725;51.196;3.510;2023-03-01T04:26:08;17.60;;;15.80;;
15665;SDS011;20725;51.196;3.510;2023-03-01T04:28:52;17.93;;;15.20;;
15665;SDS011;20725;51.196;3.510;2023-03-01T04:31:19;20.13;;;16.47;;
15665;SDS011;20725;51.196;3.510;2023-03-01T04:33:49;17.70;;;15.73;;
15665;SDS011;20725;51.196;3.510;2023-03-01T04:36:19;21.03;;;16.57;;
15665;SDS011;20725;51.196;3.510;2023-03-01T04:38:52;20.90;;;16.90;;
15665;SDS011;20725;51.196;3.510;2023-03-01T04:41:37;19.93;;;17.23;;
15665;SDS011;20725;51.196;3.510;2023-03-01T04:44:59;18.97;;;17.07;;
15665;SDS011;20725;51.196;3.510;2023-03-01T04:47:20;17.93;;;16.03;;
15665;SDS011;20725;51.196;3.510;2023-03-01T04:49:47;18.53;;;16.63;;
15665;SDS011;20725;51.196;3.510;2023-03-01T04:52:14;17.70;;;15.83;;
15665;SDS011;20725;51.196;3.510;2023-03-01T04:54:43;21.33;;;17.97;;
15665;SDS011;20725;51.196;3.510;2023-03-01T04:57:15;18.93;;;16.63;;
15665;SDS011;20725;51.196;3.510;2023-03-01T04:59:59;20.50;;;17.47;;
15665;SDS011;20725;51.196;3.510;2023-03-01T05:02:46;21.90;;;18.13;;
15665;SDS011;20725;51.196;3.510;2023-03-01T05:05:25;19.63;;;17.53;;
15665;SDS011;20725;51.196;3.510;2023-03-01T05:07:58;19.67;;;17.40;;
15665;SDS011;20725;51.196;3.510;2023-03-01T05:10:32;22.30;;;17.73;;
15665;SDS011;20725;51.196;3.510;2023-03-01T05:13:02;19.40;;;16.70;;
15665;SDS011;20725;51.196;3.510;2023-03-01T05:15:31;21.37;;;17.40;;
15665;SDS011;20725;51.196;3.510;2023-03-01T05:17:59;19.40;;;16.70;;
15665;SDS011;20725;51.196;3.510;2023-03-01T05:20:27;19.80;;;16.80;;
15665;SDS011;20725;51.196;3.510;2023-03-01T05:23:01;18.50;;;16.60;;
15665;SDS011;20725;51.196;3.510;2023-03-01T05:25:34;19.37;;;17.43;;
15665;SDS011;20725;51.196;3.510;2023-03-01T05:28:06;18.63;;;16.63;;
15665;SDS011;20725;51.196;3.510;2023-03-01T05:30:36;17.60;;;15.80;;
15665;SDS011;20725;51.196;3.510;2023-03-01T05:33:07;19.53;;;17.20;;
15665;SDS011;20725;51.196;3.510;2023-03-01T05:35:38;19.63;;;16.70;;
15665;SDS011;20725;51.196;3.510;2023-03-01T05:38:15;19.57;;;16.90;;
15665;SDS011;20725;51.196;3.510;2023-03-01T05:40:57;21.00;;;16.70;;
15665;SDS011;20725;51.196;3.510;2023-03-01T05:43:33;17.50;;;15.70;;
15665;SDS011;20725;51.196;3.510;2023-03-01T05:46:03;20.10;;;16.37;;
15665;SDS011;20725;51.196;3.510;2023-03-01T05:48:31;17.30;;;15.50;;
15665;SDS011;20725;51.196;3.510;2023-03-01T05:51:05;16.67;;;14.87;;
15665;SDS011;20725;51.196;3.510;2023-03-01T05:53:43;21.93;;;15.47;;
15665;SDS011;20725;51.196;3.510;2023-03-01T05:56:13;18.53;;;14.90;;
15665;SDS011;20725;51.196;3.510;2023-03-01T05:59:02;18.90;;;15.23;;
15665;SDS011;20725;51.196;3.510;2023-03-01T06:02:16;16.93;;;14.63;;
15665;SDS011;20725;51.196;3.510;2023-03-01T06:04:54;17.13;;;15.33;;
15665;SDS011;20725;51.196;3.510;2023-03-01T06:07:42;18.00;;;14.93;;
15665;SDS011;20725;51.196;3.510;2023-03-01T06:10:12;15.77;;;14.17;;
15665;SDS011;20725;51.196;3.510;2023-03-01T06:12:45;15.17;;;13.57;;
15665;SDS011;20725;51.196;3.510;2023-03-01T06:15:14;17.43;;;14.30;;
15665;SDS011;20725;51.196;3.510;2023-03-01T06:18:02;17.97;;;13.83;;
15665;SDS011;20725;51.196;3.510;2023-03-01T06:20:39;16.73;;;14.50;;
15665;SDS011;20725;51.196;3.510;2023-03-01T06:23:29;14.93;;;13.43;;
15665;SDS011;20725;51.196;3.510;2023-03-01T06:26:04;17.10;;;14.90;;
15665;SDS011;20725;51.196;3.510;2023-03-01T06:28:38;15.30;;;13.57;;
15665;SDS011;20725;51.196;3.510;2023-03-01T06:31:06;14.60;;;13.17;;
15665;SDS011;20725;51.196;3.510;2023-03-01T06:33:41;16.50;;;13.93;;
15665;SDS011;20725;51.196;3.510;2023-03-01T06:36:13;14.10;;;12.60;;
15665;SDS011;20725;51.196;3.510;2023-03-01T06:38:45;14.57;;;12.10;;
15665;SDS011;20725;51.196;3.510;2023-03-01T06:41:23;13.20;;;12.00;;
15665;SDS011;20725;51.196;3.510;2023-03-01T06:43:55;13.13;;;11.83;;
15665;SDS011;20725;51.196;3.510;2023-03-01T06:46:36;13.17;;;11.77;;
15665;SDS011;20725;51.196;3.510;2023-03-01T06:49:25;13.53;;;12.13;;
15665;SDS011;20725;51.196;3.510;2023-03-01T06:52:03;14.07;;;11.80;;
15665;SDS011;20725;51.196;3.510;2023-03-01T06:54:34;15.43;;;13.10;;
15665;SDS011;20725;51.196;3.510;2023-03-01T06:57:01;12.50;;;11.40;;
15665;SDS011;20725;51.196;3.510;2023-03-01T06:59:32;13.03;;;11.60;;
15665;SDS011;20725;51.196;3.510;2023-03-01T07:02:06;12.40;;;11.10;;
15665;SDS011;20725;51.196;3.510;2023-03-01T07:04:36;12.57;;;11.17;;
15665;SDS011;20725;51.196;3.510;2023-03-01T07:07:17;12.27;;;11.07;;
15665;SDS011;20725;51.196;3.510;2023-03-01T07:09:46;21.80;;;12.03;;
15665;SDS011;20725;51.196;3.510;2023-03-01T07:12:15;12.00;;;10.90;;
15665;SDS011;20725;51.196;3.510;2023-03-01T07:14:44;11.03;;;9.93;;
15665;SDS011;20725;51.196;3.510;2023-03-01T07:17:18;11.40;;;10.33;;
15665;SDS011;20725;51.196;3.510;2023-03-01T07:19:49;11.07;;;9.97;;
15665;SDS011;20725;51.196;3.510;2023-03-01T07:22:19;11.07;;;9.97;;
15665;SDS011;20725;51.196;3.510;2023-03-01T07:24:53;11.13;;;10.13;;
15665;SDS011;20725;51.196;3.510;2023-03-01T07:27:30;10.93;;;9.83;;
15665;SDS011;20725;51.196;3.510;2023-03-01T07:30:14;10.93;;;9.83;;
15665;SDS011;20725;51.196;3.510;2023-03-01T07:32:50;11.20;;;10.10;;
15665;SDS011;20725;51.196;3.510;2023-03-01T07:35:38;11.50;;;10.33;;
15665;SDS011;20725;51.196;3.510;2023-03-01T07:38:16;11.33;;;10.13;;
15665;SDS011;20725;51.196;3.510;2023-03-01T07:40:51;10.63;;;9.40;;
15665;SDS011;20725;51.196;3.510;2023-03-01T07:43:26;10.67;;;9.63;;
15665;SDS011;20725;51.196;3.510;2023-03-01T07:46:03;11.47;;;10.37;;
15665;SDS011;20725;51.196;3.510;2023-03-01T07:48:33;10.00;;;9.20;;
15665;SDS011;20725;51.196;3.510;2023-03-01T07:51:10;9.40;;;8.60;;
15665;SDS011;20725;51.196;3.510;2023-03-01T07:53:54;8.53;;;7.83;;
15665;SDS011;20725;51.196;3.510;2023-03-01T07:56:31;8.03;;;7.43;;
15665;SDS011;20725;51.196;3.510;2023-03-01T07:59:01;8.67;;;7.07;;
15665;SDS011;20725;51.196;3.510;2023-03-01T08:01:57;7.30;;;6.63;;
15665;SDS011;20725;51.196;3.510;2023-03-01T08:04:32;7.30;;;6.60;;
15665;SDS011;20725;51.196;3.510;2023-03-01T08:07:12;7.23;;;6.70;;
15665;SDS011;20725;51.196;3.510;2023-03-01T08:09:45;7.00;;;6.50;;
15665;SDS011;20725;51.196;3.510;2023-03-01T08:12:19;6.80;;;6.30;;
15665;SDS011;20725;51.196;3.510;2023-03-01T08:15:02;6.97;;;6.37;;
15665;SDS011;20725;51.196;3.510;2023-03-01T08:17:45;6.73;;;6.13;;
15665;SDS011;20725;51.196;3.510;2023-03-01T08:20:41;6.53;;;6.03;;
15665;SDS011;20725;51.196;3.510;2023-03-01T08:23:14;6.30;;;5.80;;
15665;SDS011;20725;51.196;3.510;2023-03-01T08:25:45;6.20;;;5.77;;
15665;SDS011;20725;51.196;3.510;2023-03-01T08:28:20;6.37;;;5.77;;
15665;SDS011;20725;51.196;3.510;2023-03-01T08:30:54;5.93;;;5.53;;
15665;SDS011;20725;51.196;3.510;2023-03-01T08:37:10;6.03;;;5.60;;
15665;SDS011;20725;51.196;3.510;2023-03-01T08:39:57;5.87;;;5.37;;
15665;SDS011;20725;51.196;3.510;2023-03-01T08:42:29;6.17;;;5.67;;
15665;SDS011;20725;51.196;3.510;2023-03-01T08:45:12;5.90;;;5.23;;
15665;SDS011;20725;51.196;3.510;2023-03-01T08:47:52;6.47;;;5.70;;
15665;SDS011;20725;51.196;3.510;2023-03-01T08:50:38;6.13;;;5.63;;
15665;SDS011;20725;51.196;3.510;2023-03-01T08:53:16;5.83;;;5.23;;
15665;SDS011;20725;51.196;3.510;2023-03-01T08:55:47;5.27;;;4.93;;
15665;SDS011;20725;51.196;3.510;2023-03-01T08:58:22;5.60;;;5.20;;
15665;SDS011;20725;51.196;3.510;2023-03-01T09:01:10;5.97;;;5.47;;
15665;SDS011;20725;51.196;3.510;2023-03-01T09:03:49;5.33;;;4.93;;
15665;SDS011;20725;51.196;3.510;2023-03-01T09:06:55;5.30;;;4.90;;
15665;SDS011;20725;51.196;3.510;2023-03-01T09:09:31;5.63;;;5.03;;
15665;SDS011;20725;51.196;3.510;2023-03-01T09:12:17;5.50;;;5.10;;
15665;SDS011;20725;51.196;3.510;2023-03-01T09:14:53;5.03;;;4.50;;
15665;SDS011;20725;51.196;3.510;2023-03-01T09:17:29;5.13;;;4.80;;
15665;SDS011;20725;51.196;3.510;2023-03-01T09:20:12;4.63;;;4.33;;
15665;SDS011;20725;51.196;3.510;2023-03-01T09:22:45;5.47;;;5.00;;
15665;SDS011;20725;51.196;3.510;2023-03-01T09:25:29;4.90;;;4.50;;
15665;SDS011;20725;51.196;3.510;2023-03-01T09:28:02;5.07;;;4.77;;
15665;SDS011;20725;51.196;3.510;2023-03-01T09:30:41;5.80;;;4.70;;
15665;SDS011;20725;51.196;3.510;2023-03-01T09:33:12;4.57;;;4.17;;
15665;SDS011;20725;51.196;3.510;2023-03-01T09:36:21;4.67;;;4.37;;
15665;SDS011;20725;51.196;3.510;2023-03-01T09:39:02;4.67;;;4.20;;
15665;SDS011;20725;51.196;3.510;2023-03-01T09:41:44;4.93;;;4.53;;
15665;SDS011;20725;51.196;3.510;2023-03-01T09:44:36;4.70;;;4.30;;
15665;SDS011;20725;51.196;3.510;2023-03-01T09:47:12;4.70;;;4.30;;
15665;SDS011;20725;51.196;3.510;2023-03-01T09:49:45;5.07;;;4.67;;
15665;SDS011;20725;51.196;3.510;2023-03-01T09:52:28;4.23;;;3.93;;
15665;SDS011;20725;51.196;3.510;2023-03-01T09:55:04;4.35;;;4.05;;
15665;SDS011;20725;51.196;3.510;2023-03-01T09:57:39;7.75;;;4.47;;
15665;SDS011;20725;51.196;3.510;2023-03-01T10:00:30;4.38;;;3.95;;
15665;SDS011;20725;51.196;3.510;2023-03-01T10:04:32;4.43;;;3.90;;
15665;SDS011;20725;51.196;3.510;2023-03-01T10:06:46;4.43;;;4.07;;
15665;SDS011;20725;51.196;3.510;2023-03-01T10:09:28;6.47;;;3.83;;
15665;SDS011;20725;51.196;3.510;2023-03-01T10:12:20;4.28;;;3.85;;
15665;SDS011;20725;51.196;3.510;2023-03-01T10:15:17;3.88;;;3.58;;
15665;SDS011;20725;51.196;3.510;2023-03-01T10:18:10;4.00;;;3.65;;
15665;SDS011;20725;51.196;3.510;2023-03-01T10:21:01;4.35;;;4.00;;
15665;SDS011;20725;51.196;3.510;2023-03-01T10:23:37;3.55;;;3.25;;
15665;SDS011;20725;51.196;3.510;2023-03-01T10:26:11;4.22;;;3.75;;
15665;SDS011;20725;51.196;3.510;2023-03-01T10:31:47;3.83;;;3.45;;
15665;SDS011;20725;51.196;3.510;2023-03-01T10:34:22;4.38;;;3.97;;
15665;SDS011;20725;51.196;3.510;2023-03-01T10:37:15;3.58;;;3.38;;
15665;SDS011;20725;51.196;3.510;2023-03-01T10:40:01;3.97;;;3.67;;
15665;SDS011;20725;51.196;3.510;2023-03-01T10:42:44;4.72;;;3.35;;
15665;SDS011;20725;51.196;3.510;2023-03-01T10:45:23;4.15;;;3.85;;
15665;SDS011;20725;51.196;3.510;2023-03-01T10:48:04;3.85;;;3.55;;
15665;SDS011;20725;51.196;3.510;2023-03-01T10:50:45;3.90;;;3.60;;
15665;SDS011;20725;51.196;3.510;2023-03-01T10:53:22;4.75;;;4.35;;
15665;SDS011;20725;51.196;3.510;2023-03-01T10:59:05;4.35;;;3.95;;
15665;SDS011;20725;51.196;3.510;2023-03-01T11:02:16;5.35;;;4.32;;
15665;SDS011;20725;51.196;3.510;2023-03-01T11:05:15;4.72;;;4.32;;
15665;SDS011;20725;51.196;3.510;2023-03-01T11:08:01;6.63;;;4.00;;
15665;SDS011;20725;51.196;3.510;2023-03-01T11:10:38;4.30;;;3.95;;
15665;SDS011;20725;51.196;3.510;2023-03-01T11:13:08;4.03;;;3.70;;
15665;SDS011;20725;51.196;3.510;2023-03-01T11:15:49;4.68;;;4.05;;
15665;SDS011;20725;51.196;3.510;2023-03-01T11:22:01;3.35;;;3.00;;
15665;SDS011;20725;51.196;3.510;2023-03-01T11:24:55;3.90;;;3.25;;
15665;SDS011;20725;51.196;3.510;2023-03-01T11:27:32;3.95;;;3.30;;
15665;SDS011;20725;51.196;3.510;2023-03-01T11:30:21;3.35;;;3.15;;
15665;SDS011;20725;51.196;3.510;2023-03-01T11:32:59;5.00;;;3.10;;
15665;SDS011;20725;51.196;3.510;2023-03-01T11:36:10;3.75;;;3.45;;
15665;SDS011;20725;51.196;3.510;2023-03-01T11:39:04;5.47;;;3.78;;
15665;SDS011;20725;51.196;3.510;2023-03-01T11:41:58;4.70;;;4.28;;
15665;SDS011;20725;51.196;3.510;2023-03-01T11:47:26;3.88;;;3.47;;
15665;SDS011;20725;51.196;3.510;2023-03-01T11:50:26;4.40;;;4.10;;
15665;SDS011;20725;51.196;3.510;2023-03-01T11:53:29;4.32;;;3.67;;
15665;SDS011;20725;51.196;3.510;2023-03-01T11:56:22;3.70;;;3.50;;
15665;SDS011;20725;51.196;3.510;2023-03-01T11:59:25;5.80;;;4.25;;
15665;SDS011;20725;51.196;3.510;2023-03-01T12:02:39;3.60;;;3.30;;
15665;SDS011;20725;51.196;3.510;2023-03-01T12:05:38;4.05;;;3.70;;
15665;SDS011;20725;51.196;3.510;2023-03-01T12:08:30;3.92;;;3.63;;
15665;SDS011;20725;51.196;3.510;2023-03-01T12:11:15;5.72;;;4.20;;
15665;SDS011;20725;51.196;3.510;2023-03-01T12:14:10;4.35;;;3.95;;
15665;SDS011;20725;51.196;3.510;2023-03-01T12:17:11;3.90;;;3.60;;
15665;SDS011;20725;51.196;3.510;2023-03-01T12:20:05;3.95;;;3.65;;
15665;SDS011;20725;51.196;3.510;2023-03-01T12:23:12;3.65;;;3.40;;
15665;SDS011;20725;51.196;3.510;2023-03-01T12:26:09;4.93;;;3.90;;
15665;SDS011;20725;51.196;3.510;2023-03-01T12:28:51;4.40;;;3.92;;
15665;SDS011;20725;51.196;3.510;2023-03-01T12:32:05;3.88;;;3.58;;
15665;SDS011;20725;51.196;3.510;2023-03-01T12:35:01;6.57;;;3.65;;
15665;SDS011;20725;51.196;3.510;2023-03-01T12:37:57;3.90;;;3.50;;
15665;SDS011;20725;51.196;3.510;2023-03-01T12:40:51;4.10;;;3.70;;
15665;SDS011;20725;51.196;3.510;2023-03-01T12:47:45;4.13;;;3.72;;
15665;SDS011;20725;51.196;3.510;2023-03-01T12:50:35;4.68;;;3.97;;
15665;SDS011;20725;51.196;3.510;2023-03-01T12:53:19;3.72;;;3.53;;
15665;SDS011;20725;51.196;3.510;2023-03-01T12:56:04;4.93;;;3.85;;
15665;SDS011;20725;51.196;3.510;2023-03-01T12:58:35;4.38;;;3.85;;
15665;SDS011;20725;51.196;3.510;2023-03-01T13:01:22;4.18;;;3.75;;
15665;SDS011;20725;51.196;3.510;2023-03-01T13:04:12;4.78;;;4.40;;
15665;SDS011;20725;51.196;3.510;2023-03-01T13:06:55;4.63;;;4.22;;
15665;SDS011;20725;51.196;3.510;2023-03-01T13:09:46;3.53;;;3.33;;
15665;SDS011;20725;51.196;3.510;2023-03-01T13:16:11;4.35;;;4.00;;
15665;SDS011;20725;51.196;3.510;2023-03-01T13:18:49;4.55;;;3.90;;
15665;SDS011;20725;51.196;3.510;2023-03-01T13:21:44;3.90;;;3.60;;
15665;SDS011;20725;51.196;3.510;2023-03-01T13:24:33;4.43;;;3.72;;
15665;SDS011;20725;51.196;3.510;2023-03-01T13:27:22;4.32;;;3.70;;
15665;SDS011;20725;51.196;3.510;2023-03-01T13:29:56;4.00;;;3.50;;
15665;SDS011;20725;51.196;3.510;2023-03-01T13:32:34;4.25;;;3.85;;
15665;SDS011;20725;51.196;3.510;2023-03-01T13:35:40;3.83;;;3.22;;
15665;SDS011;20725;51.196;3.510;2023-03-01T13:41:47;3.97;;;3.67;;
15665;SDS011;20725;51.196;3.510;2023-03-01T13:44:47;4.25;;;3.85;;
15665;SDS011;20725;51.196;3.510;2023-03-01T13:50:05;4.27;;;3.97;;
15665;SDS011;20725;51.196;3.510;2023-03-01T13:52:39;4.10;;;3.80;;
15665;SDS011;20725;51.196;3.510;2023-03-01T13:55:27;6.37;;;3.67;;
15665;SDS011;20725;51.196;3.510;2023-03-01T13:58:16;5.33;;;3.70;;
15665;SDS011;20725;51.196;3.510;2023-03-01T14:01:03;4.00;;;3.70;;
15665;SDS011;20725;51.196;3.510;2023-03-01T14:03:56;5.30;;;4.00;;
15665;SDS011;20725;51.196;3.510;2023-03-01T14:06:30;5.30;;;3.90;;
15665;SDS011;20725;51.196;3.510;2023-03-01T14:09:05;7.10;;;4.60;;
15665;SDS011;20725;51.196;3.510;2023-03-01T14:11:55;4.40;;;4.00;;
15665;SDS011;20725;51.196;3.510;2023-03-01T14:20:37;4.27;;;3.93;;
15665;SDS011;20725;51.196;3.510;2023-03-01T14:23:12;3.90;;;3.60;;
15665;SDS011;20725;51.196;3.510;2023-03-01T14:25:55;4.00;;;3.70;;
15665;SDS011;20725;51.196;3.510;2023-03-01T14:28:35;4.30;;;3.90;;
15665;SDS011;20725;51.196;3.510;2023-03-01T14:31:33;4.00;;;3.70;;
15665;SDS011;20725;51.196;3.510;2023-03-01T14:34:22;4.20;;;3.90;;
15665;SDS011;20725;51.196;3.510;2023-03-01T14:36:58;4.13;;;3.80;;
15665;SDS011;20725;51.196;3.510;2023-03-01T14:39:44;4.93;;;3.67;;
15665;SDS011;20725;51.196;3.510;2023-03-01T14:42:14;4.30;;;4.00;;
15665;SDS011;20725;51.196;3.510;2023-03-01T14:45:02;4.10;;;3.80;;
15665;SDS011;20725;51.196;3.510;2023-03-01T14:47:37;4.93;;;3.87;;
15665;SDS011;20725;51.196;3.510;2023-03-01T14:50:20;4.40;;;4.00;;
15665;SDS011;20725;51.196;3.510;2023-03-01T14:55:44;5.03;;;4.23;;
15665;SDS011;20725;51.196;3.510;2023-03-01T14:58:24;4.27;;;3.80;;
15665;SDS011;20725;51.196;3.510;2023-03-01T15:01:05;4.50;;;4.10;;
15665;SDS011;20725;51.196;3.510;2023-03-01T15:03:49;4.53;;;4.20;;
15665;SDS011;20725;51.196;3.510;2023-03-01T15:06:18;7.93;;;4.40;;
15665;SDS011;20725;51.196;3.510;2023-03-01T15:08:59;4.70;;;4.30;;
15665;SDS011;20725;51.196;3.510;2023-03-01T15:11:28;4.70;;;4.10;;
15665;SDS011;20725;51.196;3.510;2023-03-01T15:14:05;5.17;;;3.77;;
15665;SDS011;20725;51.196;3.510;2023-03-01T15:20:24;4.73;;;4.33;;
15665;SDS011;20725;51.196;3.510;2023-03-01T15:22:55;5.20;;;4.70;;
15665;SDS011;20725;51.196;3.510;2023-03-01T15:25:43;5.77;;;4.23;;
15665;SDS011;20725;51.196;3.510;2023-03-01T15:28:23;4.47;;;4.10;;
15665;SDS011;20725;51.196;3.510;2023-03-01T15:30:58;5.00;;;4.50;;
15665;SDS011;20725;51.196;3.510;2023-03-01T15:33:40;5.53;;;4.50;;
15665;SDS011;20725;51.196;3.510;2023-03-01T15:42:35;5.07;;;4.67;;
15665;SDS011;20725;51.196;3.510;2023-03-01T15:45:08;6.70;;;5.27;;
15665;SDS011;20725;51.196;3.510;2023-03-01T15:47:48;5.50;;;5.00;;
15665;SDS011;20725;51.196;3.510;2023-03-01T15:50:19;6.83;;;4.67;;
15665;SDS011;20725;51.196;3.510;2023-03-01T15:52:58;5.67;;;4.80;;
15665;SDS011;20725;51.196;3.510;2023-03-01T15:55:44;5.20;;;4.70;;
15665;SDS011;20725;51.196;3.510;2023-03-01T15:58:19;6.23;;;4.80;;
15665;SDS011;20725;51.196;3.510;2023-03-01T16:00:52;6.17;;;5.30;;
15665;SDS011;20725;51.196;3.510;2023-03-01T16:03:24;5.40;;;5.00;;
15665;SDS011;20725;51.196;3.510;2023-03-01T16:05:53;6.47;;;5.53;;
15665;SDS011;20725;51.196;3.510;2023-03-01T16:08:28;5.63;;;5.23;;
15665;SDS011;20725;51.196;3.510;2023-03-01T16:10:59;6.77;;;6.03;;
15665;SDS011;20725;51.196;3.510;2023-03-01T16:13:37;7.67;;;5.73;;
15665;SDS011;20725;51.196;3.510;2023-03-01T16:16:06;7.30;;;5.97;;
15665;SDS011;20725;51.196;3.510;2023-03-01T16:18:43;9.73;;;5.53;;
15665;SDS011;20725;51.196;3.510;2023-03-01T16:21:15;6.37;;;5.87;;
15665;SDS011;20725;51.196;3.510;2023-03-01T16:23:54;7.47;;;6.77;;
15665;SDS011;20725;51.196;3.510;2023-03-01T16:26:39;6.63;;;6.00;;
15665;SDS011;20725;51.196;3.510;2023-03-01T16:29:11;7.03;;;6.37;;
15665;SDS011;20725;51.196;3.510;2023-03-01T16:31:56;7.10;;;6.50;;
15665;SDS011;20725;51.196;3.510;2023-03-01T16:34:39;7.13;;;6.53;;
15665;SDS011;20725;51.196;3.510;2023-03-01T16:37:13;7.50;;;6.63;;
15665;SDS011;20725;51.196;3.510;2023-03-01T16:39:47;6.37;;;5.77;;
15665;SDS011;20725;51.196;3.510;2023-03-01T16:42:38;6.87;;;6.13;;
15665;SDS011;20725;51.196;3.510;2023-03-01T16:45:17;10.17;;;6.50;;
15665;SDS011;20725;51.196;3.510;2023-03-01T16:47:51;6.87;;;6.30;;
15665;SDS011;20725;51.196;3.510;2023-03-01T16:50:38;6.70;;;6.07;;
15665;SDS011;20725;51.196;3.510;2023-03-01T16:53:10;7.53;;;6.80;;
15665;SDS011;20725;51.196;3.510;2023-03-01T16:55:41;10.43;;;7.57;;
15665;SDS011;20725;51.196;3.510;2023-03-01T16:58:19;9.23;;;7.47;;
15665;SDS011;20725;51.196;3.510;2023-03-01T17:00:48;7.80;;;7.10;;
15665;SDS011;20725;51.196;3.510;2023-03-01T17:03:24;8.90;;;7.03;;
15665;SDS011;20725;51.196;3.510;2023-03-01T17:06:02;8.93;;;8.13;;
15665;SDS011;20725;51.196;3.510;2023-03-01T17:08:30;10.83;;;7.33;;
15665;SDS011;20725;51.196;3.510;2023-03-01T17:11:04;8.57;;;7.77;;